createdAt,value
2019-05-20T00:01:03.634Z,12.30
2019-05-20T00:03:39.766Z,11.27
2019-05-20T00:06:14.041Z,11.83
2019-05-20T00:08:47.130Z,16.40
2019-05-20T00:11:20.504Z,11.77
2019-05-20T00:13:54.466Z,10.73
2019-05-20T00:16:25.832Z,15.03
2019-05-20T00:18:58.810Z,15.73
2019-05-20T00:21:32.012Z,13.23
2019-05-20T00:24:04.863Z,13.27
2019-05-20T00:26:38.495Z,10.97
2019-05-20T00:29:12.267Z,11.50
2019-05-20T00:31:44.454Z,9.77
2019-05-20T00:34:32.668Z,10.00
2019-05-20T00:36:54.111Z,9.93
2019-05-20T00:39:25.820Z,9.90
2019-05-20T00:41:59.141Z,10.80
2019-05-20T00:44:30.904Z,10.30
2019-05-20T00:47:06.586Z,13.83
2019-05-20T00:49:41.860Z,10.40
2019-05-20T00:52:14.246Z,11.97
2019-05-20T00:54:45.848Z,11.93
2019-05-20T00:57:21.951Z,12.20
2019-05-20T00:59:54.936Z,13.60
2019-05-20T01:02:28.796Z,13.73
2019-05-20T01:05:14.017Z,13.77
2019-05-20T01:07:47.008Z,12.37
2019-05-20T01:10:21.110Z,13.67
2019-05-20T01:12:54.003Z,16.50
2019-05-20T01:15:26.955Z,13.17
2019-05-20T01:18:01.274Z,14.57
2019-05-20T01:20:33.084Z,13.30
2019-05-20T01:23:05.839Z,12.17
2019-05-20T01:25:38.015Z,11.47
2019-05-20T01:28:13.037Z,12.07
2019-05-20T01:30:45.256Z,14.67
2019-05-20T01:33:16.918Z,11.77
2019-05-20T01:35:50.022Z,12.13
2019-05-20T01:38:23.167Z,12.70
2019-05-20T01:40:56.057Z,11.60
2019-05-20T01:43:29.194Z,18.77
2019-05-20T01:46:02.832Z,10.67
2019-05-20T01:48:34.121Z,12.60
2019-05-20T01:51:07.346Z,10.27
2019-05-20T01:53:41.527Z,13.87
2019-05-20T01:56:13.150Z,11.13
2019-05-20T01:58:46.146Z,10.17
2019-05-20T02:01:19.286Z,9.47
2019-05-20T02:03:53.924Z,10.47
2019-05-20T02:06:27.302Z,9.80
2019-05-20T02:08:59.166Z,10.27
2019-05-20T02:11:31.807Z,10.30
2019-05-20T02:14:09.501Z,9.63
2019-05-20T02:16:42.856Z,10.03
2019-05-20T02:19:17.784Z,14.17
2019-05-20T02:21:52.561Z,9.60
2019-05-20T02:24:24.679Z,9.57
2019-05-20T02:26:58.259Z,10.13
2019-05-20T02:29:29.916Z,9.87
2019-05-20T02:32:03.482Z,10.87
2019-05-20T02:34:37.582Z,12.70
2019-05-20T02:37:11.346Z,10.47
2019-05-20T02:39:45.484Z,15.60
2019-05-20T02:42:21.400Z,10.10
2019-05-20T02:44:54.852Z,10.47
2019-05-20T02:47:28.595Z,13.67
2019-05-20T02:50:02.293Z,11.17
2019-05-20T02:52:46.114Z,13.57
2019-05-20T02:55:19.922Z,16.43
2019-05-20T02:57:51.508Z,15.57
2019-05-20T03:00:26.446Z,18.00
2019-05-20T03:02:58.753Z,16.30
2019-05-20T03:05:33.033Z,16.33
2019-05-20T03:08:04.809Z,15.47
2019-05-20T03:10:37.772Z,13.23
2019-05-20T03:13:11.012Z,17.13
2019-05-20T03:15:46.898Z,10.80
2019-05-20T03:18:19.728Z,15.97
2019-05-20T03:20:52.766Z,17.73
2019-05-20T03:23:25.699Z,12.73
2019-05-20T03:26:01.416Z,13.10
2019-05-20T03:28:33.679Z,11.83
2019-05-20T03:31:07.987Z,12.70
2019-05-20T03:33:43.932Z,14.40
2019-05-20T03:36:16.757Z,11.27
2019-05-20T03:38:52.559Z,15.20
2019-05-20T03:41:28.728Z,12.37
2019-05-20T03:44:02.442Z,12.53
2019-05-20T03:46:34.794Z,13.47
2019-05-20T03:49:07.497Z,18.57
2019-05-20T03:51:41.107Z,13.40
2019-05-20T03:54:14.963Z,12.50
2019-05-20T03:56:49.357Z,15.27
2019-05-20T03:59:21.833Z,14.43
2019-05-20T04:01:54.909Z,11.80
2019-05-20T04:04:27.218Z,15.73
2019-05-20T04:07:00.920Z,16.03
2019-05-20T04:09:33.160Z,14.10
2019-05-20T04:12:05.977Z,20.20
2019-05-20T04:14:40.967Z,18.37
2019-05-20T04:17:14.194Z,10.60
2019-05-20T04:19:47.138Z,14.00
2019-05-20T04:22:19.873Z,12.03
2019-05-20T04:24:51.961Z,11.90
2019-05-20T04:27:25.763Z,17.03
2019-05-20T04:29:59.114Z,10.23
2019-05-20T04:32:39.120Z,10.13
2019-05-20T04:35:22.299Z,9.20
2019-05-20T04:37:58.558Z,11.60
2019-05-20T04:40:32.919Z,12.40
2019-05-20T04:43:06.370Z,8.67
2019-05-20T04:45:39.928Z,9.23
2019-05-20T04:48:15.533Z,10.00
2019-05-20T04:50:48.804Z,9.37
2019-05-20T04:53:20.249Z,8.93
2019-05-20T04:55:55.242Z,10.50
2019-05-20T04:58:26.662Z,11.13
2019-05-20T05:00:59.627Z,7.90
2019-05-20T05:03:33.803Z,12.13
2019-05-20T05:06:07.029Z,11.53
2019-05-20T05:08:40.968Z,8.20
2019-05-20T05:11:17.668Z,9.53
2019-05-20T05:13:50.054Z,8.40
2019-05-20T05:16:22.113Z,7.33
2019-05-20T05:18:54.538Z,8.10
2019-05-20T05:21:26.188Z,8.33
2019-05-20T05:23:59.610Z,8.43
2019-05-20T05:26:33.882Z,7.73
2019-05-20T05:29:10.016Z,7.80
2019-05-20T05:31:41.284Z,8.53
2019-05-20T05:34:14.173Z,7.03
2019-05-20T05:36:46.054Z,6.80
2019-05-20T05:39:21.751Z,8.00
2019-05-20T05:41:53.167Z,9.57
2019-05-20T05:44:26.213Z,8.30
2019-05-20T05:47:01.431Z,7.87
2019-05-20T05:49:33.882Z,6.90
2019-05-20T05:52:05.466Z,6.97
2019-05-20T05:54:38.082Z,9.77
2019-05-20T05:57:17.067Z,7.33
2019-05-20T05:59:50.255Z,7.87
2019-05-20T06:02:24.625Z,8.60
2019-05-20T06:04:58.350Z,6.93
2019-05-20T06:07:40.788Z,8.13
2019-05-20T06:10:16.753Z,8.73
2019-05-20T06:12:48.663Z,8.87
2019-05-20T06:15:32.148Z,7.97
2019-05-20T06:18:05.381Z,7.47
2019-05-20T06:20:38.394Z,8.00
2019-05-20T06:23:11.439Z,7.13
2019-05-20T06:25:45.408Z,7.30
2019-05-20T06:28:17.405Z,6.67
2019-05-20T06:30:50.335Z,7.40
2019-05-20T06:33:23.313Z,7.10
2019-05-20T06:35:56.793Z,6.53
2019-05-20T06:38:56.370Z,7.53
2019-05-20T06:41:30.187Z,6.00
2019-05-20T06:44:03.337Z,6.70
2019-05-20T06:46:39.068Z,5.70
2019-05-20T06:49:11.373Z,5.97
2019-05-20T06:51:44.372Z,5.77
2019-05-20T06:54:17.421Z,6.93
2019-05-20T06:56:51.474Z,5.60
2019-05-20T06:59:23.642Z,5.27
2019-05-20T07:01:55.990Z,4.90
2019-05-20T07:04:28.714Z,5.30
2019-05-20T07:07:12.483Z,5.17
2019-05-20T07:09:37.910Z,5.77
2019-05-20T07:12:12.467Z,5.60
2019-05-20T07:14:43.675Z,5.57
2019-05-20T07:17:18.303Z,10.33
2019-05-20T07:19:49.746Z,5.70
2019-05-20T07:22:22.670Z,5.00
2019-05-20T07:24:58.382Z,5.30
2019-05-20T07:27:29.608Z,5.07
2019-05-20T07:30:15.561Z,6.27
2019-05-20T07:32:47.638Z,5.53
2019-05-20T07:35:29.525Z,6.17
2019-05-20T07:37:52.839Z,4.90
2019-05-20T07:40:33.135Z,5.13
2019-05-20T07:43:05.817Z,3.90
2019-05-20T07:45:39.550Z,4.83
2019-05-20T07:48:13.766Z,5.10
2019-05-20T07:50:48.876Z,4.60
2019-05-20T07:53:24.666Z,5.70
2019-05-20T07:56:07.771Z,5.17
2019-05-20T07:58:42.526Z,5.23
2019-05-20T08:01:17.435Z,5.40
2019-05-20T08:03:49.807Z,5.47
2019-05-20T08:06:22.955Z,6.17
2019-05-20T08:08:55.790Z,6.27
2019-05-20T08:11:27.839Z,5.47
2019-05-20T08:14:02.876Z,8.80
2019-05-20T08:16:35.270Z,6.40
2019-05-20T08:19:07.461Z,5.57
2019-05-20T08:21:38.919Z,6.03
2019-05-20T08:24:10.917Z,5.67
2019-05-20T08:26:44.122Z,6.80
2019-05-20T08:29:17.061Z,6.13
2019-05-20T08:31:49.889Z,5.23
2019-05-20T08:34:22.922Z,10.43
2019-05-20T08:36:54.960Z,6.60
2019-05-20T08:39:29.788Z,6.50
2019-05-20T08:42:03.882Z,6.23
2019-05-20T08:44:37.912Z,5.77
2019-05-20T08:47:10.857Z,6.13
2019-05-20T08:49:44.897Z,6.57
2019-05-20T08:52:17.067Z,6.30
2019-05-20T08:54:50.129Z,6.57
2019-05-20T08:57:23.194Z,7.20
2019-05-20T08:59:56.253Z,6.03
2019-05-20T09:02:30.089Z,11.10
2019-05-20T09:05:02.156Z,6.20
2019-05-20T09:07:42.834Z,6.60
2019-05-20T09:10:27.603Z,7.03
2019-05-20T09:12:59.115Z,6.70
2019-05-20T09:15:32.257Z,6.37
2019-05-20T09:18:05.277Z,6.17
2019-05-20T09:20:39.154Z,7.07
2019-05-20T09:23:11.191Z,6.90
2019-05-20T09:25:44.142Z,5.20
2019-05-20T09:28:17.148Z,6.60
2019-05-20T09:30:51.138Z,5.63
2019-05-20T09:33:24.224Z,5.87
2019-05-20T09:35:58.247Z,6.30
2019-05-20T09:38:32.243Z,5.53
2019-05-20T09:41:06.211Z,4.13
2019-05-20T09:43:39.359Z,5.47
2019-05-20T09:46:11.097Z,4.90
2019-05-20T09:48:44.408Z,8.80
2019-05-20T09:51:20.063Z,6.17
2019-05-20T09:53:53.155Z,9.73
2019-05-20T09:56:28.772Z,4.90
2019-05-20T09:59:03.388Z,4.83
2019-05-20T10:01:39.778Z,5.20
2019-05-20T10:04:12.881Z,5.30
2019-05-20T10:06:46.129Z,4.90
2019-05-20T10:09:20.374Z,4.43
2019-05-20T10:11:53.639Z,11.73
2019-05-20T10:14:27.951Z,4.50
2019-05-20T10:17:00.311Z,4.93
2019-05-20T10:19:33.416Z,6.30
2019-05-20T10:22:05.517Z,3.83
2019-05-20T10:24:37.280Z,4.70
2019-05-20T10:27:08.503Z,5.20
2019-05-20T10:29:40.467Z,5.17
2019-05-20T10:32:17.083Z,6.60
2019-05-20T10:34:48.392Z,4.43
2019-05-20T10:37:20.867Z,6.03
2019-05-20T10:39:54.608Z,5.60
2019-05-20T10:42:26.351Z,6.30
2019-05-20T10:44:58.467Z,4.13
2019-05-20T10:47:43.545Z,4.07
2019-05-20T10:50:17.898Z,3.30
2019-05-20T10:52:50.511Z,3.83
2019-05-20T10:55:23.680Z,4.07
2019-05-20T10:57:56.615Z,3.77
2019-05-20T11:00:30.269Z,4.00
2019-05-20T11:03:01.592Z,4.43
2019-05-20T11:05:37.492Z,14.33
2019-05-20T11:08:08.816Z,3.87
2019-05-20T11:10:40.563Z,5.23
2019-05-20T11:13:17.891Z,3.20
2019-05-20T11:15:51.971Z,5.23
2019-05-20T11:18:26.686Z,3.07
2019-05-20T11:21:00.868Z,3.70
2019-05-20T11:23:32.601Z,3.63
2019-05-20T11:26:07.576Z,6.07
2019-05-20T11:28:43.431Z,3.50
2019-05-20T11:31:15.891Z,3.23
2019-05-20T11:33:48.812Z,6.60
2019-05-20T11:36:22.577Z,2.87
2019-05-20T11:38:56.386Z,2.70
2019-05-20T11:41:52.057Z,6.23
2019-05-20T11:44:03.886Z,3.40
2019-05-20T11:46:35.800Z,3.67
2019-05-20T11:49:07.994Z,4.00
2019-05-20T11:51:40.705Z,2.20
2019-05-20T11:54:12.136Z,2.70
2019-05-20T11:56:44.368Z,3.33
2019-05-20T11:59:18.910Z,3.23
2019-05-20T12:01:54.605Z,3.90
2019-05-20T12:04:27.411Z,2.90
2019-05-20T12:07:01.131Z,3.23
2019-05-20T12:09:48.320Z,3.20
2019-05-20T12:12:08.560Z,1.70
2019-05-20T12:14:42.272Z,2.17
2019-05-20T12:17:15.136Z,1.93
2019-05-20T12:19:51.115Z,3.57
2019-05-20T12:22:24.121Z,1.90
2019-05-20T12:24:59.881Z,3.07
2019-05-20T12:27:43.871Z,2.20
2019-05-20T12:30:19.892Z,2.40
2019-05-20T12:33:15.601Z,2.30
2019-05-20T12:35:28.002Z,1.90
2019-05-20T12:38:02.407Z,2.00
2019-05-20T12:40:35.825Z,2.30
2019-05-20T12:43:08.066Z,2.10
2019-05-20T12:45:42.935Z,4.70
2019-05-20T12:48:18.711Z,2.60
2019-05-20T12:50:51.240Z,2.17
2019-05-20T12:53:24.244Z,6.37
2019-05-20T12:55:55.755Z,1.20
2019-05-20T12:58:29.392Z,1.97
2019-05-20T13:01:03.323Z,2.50
2019-05-20T13:03:36.995Z,1.97
2019-05-20T13:06:10.667Z,2.93
2019-05-20T13:08:43.588Z,1.90
2019-05-20T13:11:18.249Z,2.00
2019-05-20T13:13:50.154Z,1.70
2019-05-20T13:16:25.844Z,1.63
2019-05-20T13:19:00.575Z,3.20
2019-05-20T13:21:33.983Z,1.90
2019-05-20T13:24:06.307Z,2.70
2019-05-20T13:26:39.163Z,1.90
2019-05-20T13:29:11.400Z,3.00
2019-05-20T13:31:46.814Z,1.83
2019-05-20T13:34:22.079Z,1.17
2019-05-20T13:36:56.316Z,2.27
2019-05-20T13:39:28.779Z,15.43
2019-05-20T13:42:02.454Z,2.17
2019-05-20T13:44:35.734Z,2.37
2019-05-20T13:47:08.198Z,3.93
2019-05-20T13:49:46.602Z,2.60
2019-05-20T13:52:22.162Z,2.10
2019-05-20T13:54:55.374Z,2.70
2019-05-20T13:57:32.852Z,2.00
2019-05-20T14:00:16.968Z,1.90
2019-05-20T14:02:52.261Z,6.37
2019-05-20T14:05:26.357Z,12.43
2019-05-20T14:08:01.750Z,1.90
2019-05-20T14:10:36.477Z,1.90
2019-05-20T14:13:08.148Z,1.57
2019-05-20T14:15:42.660Z,1.40
2019-05-20T14:18:16.522Z,2.20
2019-05-20T14:20:52.230Z,1.20
2019-05-20T14:23:23.751Z,1.40
2019-05-20T14:25:57.718Z,1.20
2019-05-20T14:28:31.435Z,1.03
2019-05-20T14:31:06.475Z,1.10
2019-05-20T14:33:38.463Z,2.67
2019-05-20T14:36:12.799Z,1.47
2019-05-20T14:38:44.812Z,1.00
2019-05-20T14:41:21.446Z,1.57
2019-05-20T14:43:52.839Z,4.30
2019-05-20T14:46:24.437Z,1.23
2019-05-20T14:48:56.671Z,1.20
2019-05-20T14:51:29.655Z,1.40
2019-05-20T14:54:02.661Z,2.10
2019-05-20T14:56:38.473Z,1.80
2019-05-20T14:59:13.373Z,1.53
2019-05-20T15:01:45.623Z,1.27
2019-05-20T15:04:21.429Z,1.30
2019-05-20T15:06:52.887Z,1.63
2019-05-20T15:09:28.939Z,1.67
2019-05-20T15:12:03.621Z,5.13
2019-05-20T15:14:35.809Z,1.20
2019-05-20T15:17:10.232Z,3.60
2019-05-20T15:19:42.547Z,1.57
2019-05-20T15:22:14.838Z,1.20
2019-05-20T15:24:55.242Z,2.23
2019-05-20T15:27:28.435Z,1.90
2019-05-20T15:29:59.843Z,3.10
2019-05-20T15:32:42.950Z,1.57
2019-05-20T15:35:17.451Z,1.97
2019-05-20T15:37:51.086Z,2.33
2019-05-20T15:40:24.437Z,3.07
2019-05-20T15:42:57.882Z,4.23
2019-05-20T15:45:32.030Z,1.70
2019-05-20T15:48:05.919Z,2.80
2019-05-20T15:50:40.712Z,3.77
2019-05-20T15:53:13.699Z,1.53
2019-05-20T15:55:46.210Z,1.57
2019-05-20T15:58:19.186Z,2.13
2019-05-20T16:00:51.808Z,2.70
2019-05-20T16:03:24.833Z,4.27
2019-05-20T16:05:59.953Z,2.10
2019-05-20T16:08:33.749Z,1.27
2019-05-20T16:11:07.316Z,3.83
2019-05-20T16:13:39.067Z,3.80
2019-05-20T16:16:13.116Z,1.10
2019-05-20T16:18:47.400Z,2.23
2019-05-20T16:21:22.734Z,3.73
2019-05-20T16:23:54.160Z,1.33
2019-05-20T16:26:30.061Z,2.27
2019-05-20T16:29:04.713Z,1.57
2019-05-20T16:31:39.918Z,1.80
2019-05-20T16:34:11.181Z,2.80
2019-05-20T16:36:45.835Z,0.80
2019-05-20T16:39:18.071Z,1.83
2019-05-20T16:41:50.271Z,2.57
2019-05-20T16:44:25.893Z,1.33
2019-05-20T16:47:03.434Z,3.10
2019-05-20T16:49:37.166Z,1.50
2019-05-20T16:52:08.746Z,1.40
2019-05-20T16:54:42.042Z,2.50
2019-05-20T16:57:14.417Z,1.53
2019-05-20T16:59:48.878Z,3.03
2019-05-20T17:02:33.048Z,1.30
2019-05-20T17:05:17.782Z,1.10
2019-05-20T17:07:58.788Z,1.87
2019-05-20T17:10:34.098Z,1.87
2019-05-20T17:13:07.258Z,1.00
2019-05-20T17:15:43.827Z,1.00
2019-05-20T17:18:18.420Z,1.57
2019-05-20T17:20:52.074Z,2.50
2019-05-20T17:23:24.259Z,0.90
2019-05-20T17:25:58.067Z,0.80
2019-05-20T17:28:29.497Z,1.27
2019-05-20T17:31:03.535Z,0.90
2019-05-20T17:33:35.861Z,1.10
2019-05-20T17:36:08.564Z,1.10
2019-05-20T17:38:42.542Z,0.90
2019-05-20T17:41:15.803Z,2.00
2019-05-20T17:43:50.249Z,1.37
2019-05-20T17:46:21.491Z,1.20
2019-05-20T17:48:53.395Z,2.10
2019-05-20T17:51:28.447Z,0.80
2019-05-20T17:54:02.253Z,1.20
2019-05-20T17:56:36.974Z,1.93
2019-05-20T17:59:08.555Z,2.97
2019-05-20T18:01:43.251Z,1.47
2019-05-20T18:04:15.457Z,1.87
2019-05-20T18:06:49.283Z,1.30
2019-05-20T18:09:21.273Z,1.60
2019-05-20T18:11:55.382Z,1.30
2019-05-20T18:14:26.587Z,1.27
2019-05-20T18:17:00.921Z,3.87
2019-05-20T18:19:32.625Z,1.40
2019-05-20T18:22:06.302Z,1.77
2019-05-20T18:24:37.647Z,1.90
2019-05-20T18:27:08.866Z,1.50
2019-05-20T18:29:41.975Z,1.27
2019-05-20T18:32:13.557Z,7.60
2019-05-20T18:34:48.454Z,1.63
2019-05-20T18:37:20.821Z,2.50
2019-05-20T18:39:55.329Z,1.17
2019-05-20T18:42:26.741Z,4.00
2019-05-20T18:44:59.768Z,2.70
2019-05-20T18:47:41.971Z,1.90
2019-05-20T18:50:19.940Z,1.37
2019-05-20T18:52:52.657Z,2.07
2019-05-20T18:55:26.288Z,5.53
2019-05-20T18:57:59.728Z,3.63
2019-05-20T19:00:34.590Z,3.07
2019-05-20T19:03:08.291Z,4.30
2019-05-20T19:05:42.809Z,2.23
2019-05-20T19:08:15.871Z,4.93
2019-05-20T19:10:49.656Z,3.40
2019-05-20T19:13:20.871Z,2.37
2019-05-20T19:15:54.068Z,2.80
2019-05-20T19:18:27.770Z,5.10
2019-05-20T19:20:59.944Z,5.27
2019-05-20T19:23:35.115Z,2.43
2019-05-20T19:26:07.474Z,2.60
2019-05-20T19:28:38.919Z,6.77
2019-05-20T19:31:11.973Z,3.40
2019-05-20T19:33:45.458Z,5.77
2019-05-20T19:36:17.980Z,4.10
2019-05-20T19:38:51.943Z,3.43
2019-05-20T19:41:25.773Z,2.73
2019-05-20T19:43:59.967Z,3.23
2019-05-20T19:46:33.412Z,3.70
2019-05-20T19:49:07.852Z,3.23
2019-05-20T19:51:40.328Z,3.33
2019-05-20T19:54:15.121Z,3.10
2019-05-20T19:56:48.393Z,3.37
2019-05-20T19:59:22.012Z,2.73
2019-05-20T20:01:55.633Z,2.10
2019-05-20T20:04:27.622Z,3.93
2019-05-20T20:07:01.134Z,2.70
2019-05-20T20:09:33.186Z,4.47
2019-05-20T20:12:06.638Z,3.50
2019-05-20T20:14:39.168Z,3.93
2019-05-20T20:17:13.903Z,3.50
2019-05-20T20:19:46.202Z,3.40
2019-05-20T20:22:19.486Z,3.37
2019-05-20T20:24:53.167Z,4.13
2019-05-20T20:27:27.233Z,9.17
2019-05-20T20:29:59.268Z,10.77
2019-05-20T20:32:45.182Z,3.80
2019-05-20T20:35:19.309Z,5.00
2019-05-20T20:37:51.394Z,7.40
2019-05-20T20:40:25.174Z,6.20
2019-05-20T20:43:00.024Z,5.07
2019-05-20T20:45:33.447Z,4.20
2019-05-20T20:48:06.443Z,3.33
2019-05-20T20:50:41.615Z,5.23
2019-05-20T20:53:17.087Z,3.40
2019-05-20T20:55:49.440Z,6.03
2019-05-20T20:58:23.250Z,13.13
2019-05-20T21:01:01.533Z,2.97
2019-05-20T21:03:33.575Z,3.60
2019-05-20T21:06:08.227Z,8.50
2019-05-20T21:08:42.411Z,11.17
2019-05-20T21:11:14.385Z,4.37
2019-05-20T21:13:47.535Z,4.20
2019-05-20T21:16:22.729Z,4.23
2019-05-20T21:18:56.425Z,5.73
2019-05-20T21:21:31.602Z,13.30
2019-05-20T21:24:03.596Z,4.43
2019-05-20T21:26:36.667Z,5.33
2019-05-20T21:29:08.401Z,4.70
2019-05-20T21:31:46.863Z,6.67
2019-05-20T21:34:20.803Z,3.93
2019-05-20T21:36:53.694Z,11.93
2019-05-20T21:39:27.504Z,4.47
2019-05-20T21:41:59.464Z,12.47
2019-05-20T21:44:31.825Z,4.77
2019-05-20T21:47:06.368Z,12.97
2019-05-20T21:49:37.698Z,4.13
2019-05-20T21:52:08.993Z,3.83
2019-05-20T21:54:40.281Z,5.70
2019-05-20T21:57:14.010Z,6.93
2019-05-20T21:59:48.798Z,5.30
2019-05-20T22:02:26.525Z,7.00
2019-05-20T22:04:57.592Z,4.27
2019-05-20T22:07:29.686Z,10.77
2019-05-20T22:10:00.918Z,5.40
2019-05-20T22:12:43.150Z,3.33
2019-05-20T22:15:16.432Z,3.20
2019-05-20T22:17:49.906Z,2.40
2019-05-20T22:20:23.541Z,2.73
2019-05-20T22:23:15.268Z,4.33
2019-05-20T22:25:50.049Z,2.73
2019-05-20T22:28:22.780Z,3.73
2019-05-20T22:30:56.906Z,2.97
2019-05-20T22:33:40.897Z,3.00
2019-05-20T22:36:04.848Z,4.50
2019-05-20T22:38:41.031Z,3.00
2019-05-20T22:41:19.190Z,2.90
2019-05-20T22:43:51.756Z,4.00
2019-05-20T22:46:26.157Z,3.40
2019-05-20T22:48:58.900Z,4.00
2019-05-20T22:51:30.118Z,3.20
2019-05-20T22:54:03.067Z,5.53
2019-05-20T22:56:34.808Z,9.00
2019-05-20T22:59:08.582Z,20.00
2019-05-20T23:01:39.918Z,4.37
2019-05-20T23:04:11.933Z,2.77
2019-05-20T23:06:45.911Z,4.13
2019-05-20T23:09:18.184Z,2.30
2019-05-20T23:11:52.865Z,3.63
2019-05-20T23:14:24.507Z,3.07
2019-05-20T23:17:01.223Z,2.90
2019-05-20T23:19:31.993Z,3.87
2019-05-20T23:22:05.317Z,3.10
2019-05-20T23:24:38.455Z,3.70
2019-05-20T23:27:09.744Z,10.83
2019-05-20T23:29:45.018Z,4.33
2019-05-20T23:32:17.919Z,3.63
2019-05-20T23:34:50.220Z,3.87
2019-05-20T23:37:24.174Z,4.20
2019-05-20T23:39:57.765Z,4.73
2019-05-20T23:42:41.909Z,4.40
2019-05-20T23:45:17.225Z,4.83
2019-05-20T23:47:51.144Z,3.80
2019-05-20T23:50:24.158Z,4.13
2019-05-20T23:52:56.326Z,5.17
2019-05-20T23:55:29.201Z,4.50
2019-05-20T23:58:05.041Z,6.03
